Portada
METAR-TAF:

METAR-TAF

Aeroports :

Malé, Maldives

latitud: 04-12N, longitud: 073-32E, altitud: 2 m

Observació

L'informe es va fer fa 1 hora i 10 minuts, a les 18:00 UTC
Vent 12 kt del Oest/Nord-Oest
Temperatura 28°C
Humitat 84%
Pressió 1012 hPa
Visibilitat 10 km o més
Escasses núvols a una alçada de 1700 ft, Cumulus congestus.
Cel ennuvolat a una alçada de 11000 ft

METAR: VRMM 011800Z 29012KT 9999 FEW017TCU BKN110 28/25 Q1012 TEMPO 5000 SHRA

Hora: 00:10 (19:10 UTC)

Pronòstic

L'informe es va fer fa 2 hores i 10 minuts, a les 17:00 UTC
Pronòstic vàlid del 01 a les 18 UTC al 02 a les 24 UTC
Vent 15 kt del Sud-Oest
Visibilitat 10 km o més
Núvols disperses a una alçada de 1800 ft, Cumulus congestus.
Cel ennuvolat a una alçada de 10000 ft
Temporalment
l' 01 a les 18 UTC al 01 a les 24 UTC
Visibilitat: 4000 m
Núvols disperses a una alçada de 1600 ft, Cumulonimbus.
xàfecs de pluja

TAF: VRMM 011700Z 0118/0224 22015KT 9999 SCT018TCU BKN100 TEMPO 0118/0124 4000 SHRA SCT016CB

Observacions i pronòstics meteorològics de més de 4000 aeroports (METAR i TAF).

Les estacions disponibles són els punts grocs i vermells al mapa.

Posi el ratolí al punt desitjat per veure el nom de l'estació.

Feu clic per veure les observacions i els pronòstics meteorològics.

Per canviar el mapa: feu clic els botons verds amb una creu de color negre per apropar; al botó verd amb un guió per allunyar la imatge; o en les fletxes verdes per a mapes adjacents.


METAR-TAF: